sensor_id;sensor_type;location;lat;lon;timestamp;P1;durP1;ratioP1;P2;durP2;ratioP2
34317;SDS011;20582;52.196;20.952;2023-01-23T00:02:04;39.78;;;17.85;;
34317;SDS011;20582;52.196;20.952;2023-01-23T00:04:30;34.58;;;16.92;;
34317;SDS011;20582;52.196;20.952;2023-01-23T00:06:56;42.85;;;17.45;;
34317;SDS011;20582;52.196;20.952;2023-01-23T00:09:22;37.22;;;17.83;;
34317;SDS011;20582;52.196;20.952;2023-01-23T00:11:48;36.33;;;16.25;;
34317;SDS011;20582;52.196;20.952;2023-01-23T00:14:14;37.58;;;17.23;;
34317;SDS011;20582;52.196;20.952;2023-01-23T00:16:41;37.45;;;17.42;;
34317;SDS011;20582;52.196;20.952;2023-01-23T00:19:08;40.63;;;17.23;;
34317;SDS011;20582;52.196;20.952;2023-01-23T00:21:34;39.97;;;16.00;;
34317;SDS011;20582;52.196;20.952;2023-01-23T00:24:00;35.45;;;15.75;;
34317;SDS011;20582;52.196;20.952;2023-01-23T00:26:27;35.15;;;15.93;;
34317;SDS011;20582;52.196;20.952;2023-01-23T00:28:54;38.78;;;16.33;;
34317;SDS011;20582;52.196;20.952;2023-01-23T00:31:22;34.97;;;16.90;;
34317;SDS011;20582;52.196;20.952;2023-01-23T00:33:52;36.97;;;15.88;;
34317;SDS011;20582;52.196;20.952;2023-01-23T00:36:18;44.63;;;16.25;;
34317;SDS011;20582;52.196;20.952;2023-01-23T00:38:44;42.30;;;16.50;;
34317;SDS011;20582;52.196;20.952;2023-01-23T00:41:10;30.90;;;15.48;;
34317;SDS011;20582;52.196;20.952;2023-01-23T00:43:36;37.58;;;17.52;;
34317;SDS011;20582;52.196;20.952;2023-01-23T00:46:02;41.47;;;18.05;;
34317;SDS011;20582;52.196;20.952;2023-01-23T00:48:29;34.58;;;15.93;;
34317;SDS011;20582;52.196;20.952;2023-01-23T00:50:55;36.72;;;16.80;;
34317;SDS011;20582;52.196;20.952;2023-01-23T00:53:21;37.63;;;15.43;;
34317;SDS011;20582;52.196;20.952;2023-01-23T00:55:47;39.28;;;17.13;;
34317;SDS011;20582;52.196;20.952;2023-01-23T00:58:13;42.28;;;16.23;;
34317;SDS011;20582;52.196;20.952;2023-01-23T01:00:39;41.88;;;18.08;;
34317;SDS011;20582;52.196;20.952;2023-01-23T01:03:06;36.60;;;16.42;;
34317;SDS011;20582;52.196;20.952;2023-01-23T01:05:32;38.95;;;17.50;;
34317;SDS011;20582;52.196;20.952;2023-01-23T01:07:58;38.25;;;17.23;;
34317;SDS011;20582;52.196;20.952;2023-01-23T01:10:24;36.60;;;17.15;;
34317;SDS011;20582;52.196;20.952;2023-01-23T01:12:53;33.15;;;15.57;;
34317;SDS011;20582;52.196;20.952;2023-01-23T01:15:19;35.72;;;15.50;;
34317;SDS011;20582;52.196;20.952;2023-01-23T01:17:45;39.47;;;16.98;;
34317;SDS011;20582;52.196;20.952;2023-01-23T01:20:11;40.30;;;17.50;;
34317;SDS011;20582;52.196;20.952;2023-01-23T01:22:37;33.28;;;15.63;;
34317;SDS011;20582;52.196;20.952;2023-01-23T01:25:04;38.90;;;16.52;;
34317;SDS011;20582;52.196;20.952;2023-01-23T01:27:30;38.53;;;16.40;;
34317;SDS011;20582;52.196;20.952;2023-01-23T01:29:56;35.35;;;16.73;;
34317;SDS011;20582;52.196;20.952;2023-01-23T01:32:22;36.60;;;16.45;;
34317;SDS011;20582;52.196;20.952;2023-01-23T01:34:49;37.22;;;16.75;;
34317;SDS011;20582;52.196;20.952;2023-01-23T01:37:16;38.97;;;17.15;;
34317;SDS011;20582;52.196;20.952;2023-01-23T01:39:42;34.78;;;16.00;;
34317;SDS011;20582;52.196;20.952;2023-01-23T01:42:08;39.78;;;17.95;;
34317;SDS011;20582;52.196;20.952;2023-01-23T01:47:18;43.13;;;17.98;;
34317;SDS011;20582;52.196;20.952;2023-01-23T01:49:44;35.30;;;16.02;;
34317;SDS011;20582;52.196;20.952;2023-01-23T01:52:11;42.17;;;17.25;;
34317;SDS011;20582;52.196;20.952;2023-01-23T01:54:45;40.00;;;16.77;;
34317;SDS011;20582;52.196;20.952;2023-01-23T02:02:13;36.08;;;16.35;;
34317;SDS011;20582;52.196;20.952;2023-01-23T02:04:41;41.03;;;16.10;;
34317;SDS011;20582;52.196;20.952;2023-01-23T02:07:10;39.22;;;17.48;;
34317;SDS011;20582;52.196;20.952;2023-01-23T02:09:39;37.67;;;16.25;;
34317;SDS011;20582;52.196;20.952;2023-01-23T02:12:05;36.78;;;16.55;;
34317;SDS011;20582;52.196;20.952;2023-01-23T02:14:31;38.08;;;17.10;;
34317;SDS011;20582;52.196;20.952;2023-01-23T02:16:57;39.58;;;16.25;;
34317;SDS011;20582;52.196;20.952;2023-01-23T02:22:05;36.17;;;15.88;;
34317;SDS011;20582;52.196;20.952;2023-01-23T02:24:35;41.85;;;16.42;;
34317;SDS011;20582;52.196;20.952;2023-01-23T02:27:04;39.38;;;17.13;;
34317;SDS011;20582;52.196;20.952;2023-01-23T02:29:48;41.58;;;17.15;;
34317;SDS011;20582;52.196;20.952;2023-01-23T02:32:16;37.20;;;17.83;;
34317;SDS011;20582;52.196;20.952;2023-01-23T02:34:43;40.47;;;17.13;;
34317;SDS011;20582;52.196;20.952;2023-01-23T02:37:10;44.00;;;18.08;;
34317;SDS011;20582;52.196;20.952;2023-01-23T02:39:38;38.75;;;15.95;;
34317;SDS011;20582;52.196;20.952;2023-01-23T02:42:04;39.63;;;16.58;;
34317;SDS011;20582;52.196;20.952;2023-01-23T02:44:30;39.63;;;16.95;;
34317;SDS011;20582;52.196;20.952;2023-01-23T02:46:58;41.65;;;17.92;;
34317;SDS011;20582;52.196;20.952;2023-01-23T02:49:24;41.88;;;16.52;;
34317;SDS011;20582;52.196;20.952;2023-01-23T02:51:51;42.42;;;17.05;;
34317;SDS011;20582;52.196;20.952;2023-01-23T02:54:18;44.80;;;17.90;;
34317;SDS011;20582;52.196;20.952;2023-01-23T02:56:44;37.63;;;17.65;;
34317;SDS011;20582;52.196;20.952;2023-01-23T02:59:10;41.45;;;17.38;;
34317;SDS011;20582;52.196;20.952;2023-01-23T03:01:55;38.83;;;15.88;;
34317;SDS011;20582;52.196;20.952;2023-01-23T03:04:21;46.33;;;18.17;;
34317;SDS011;20582;52.196;20.952;2023-01-23T03:06:47;43.90;;;20.23;;
34317;SDS011;20582;52.196;20.952;2023-01-23T03:09:14;45.42;;;17.27;;
34317;SDS011;20582;52.196;20.952;2023-01-23T03:11:42;44.20;;;17.98;;
34317;SDS011;20582;52.196;20.952;2023-01-23T03:14:09;45.97;;;18.25;;
34317;SDS011;20582;52.196;20.952;2023-01-23T03:16:35;44.85;;;17.42;;
34317;SDS011;20582;52.196;20.952;2023-01-23T03:19:03;43.83;;;17.33;;
34317;SDS011;20582;52.196;20.952;2023-01-23T03:21:30;41.47;;;18.35;;
34317;SDS011;20582;52.196;20.952;2023-01-23T03:23:56;46.25;;;18.27;;
34317;SDS011;20582;52.196;20.952;2023-01-23T03:26:22;42.63;;;17.65;;
34317;SDS011;20582;52.196;20.952;2023-01-23T03:28:48;39.45;;;18.10;;
34317;SDS011;20582;52.196;20.952;2023-01-23T03:31:33;46.55;;;19.52;;
34317;SDS011;20582;52.196;20.952;2023-01-23T03:33:59;45.60;;;18.35;;
34317;SDS011;20582;52.196;20.952;2023-01-23T03:36:25;53.63;;;20.88;;
34317;SDS011;20582;52.196;20.952;2023-01-23T03:38:51;54.65;;;19.75;;
34317;SDS011;20582;52.196;20.952;2023-01-23T03:41:36;43.53;;;18.20;;
34317;SDS011;20582;52.196;20.952;2023-01-23T03:44:06;48.58;;;18.77;;
34317;SDS011;20582;52.196;20.952;2023-01-23T03:46:32;42.83;;;17.40;;
34317;SDS011;20582;52.196;20.952;2023-01-23T03:48:58;46.08;;;20.30;;
34317;SDS011;20582;52.196;20.952;2023-01-23T03:51:24;44.58;;;18.15;;
34317;SDS011;20582;52.196;20.952;2023-01-23T03:53:50;44.38;;;18.98;;
34317;SDS011;20582;52.196;20.952;2023-01-23T03:56:15;44.83;;;18.83;;
34317;SDS011;20582;52.196;20.952;2023-01-23T03:58:41;44.78;;;18.17;;
34317;SDS011;20582;52.196;20.952;2023-01-23T04:01:08;44.78;;;18.65;;
34317;SDS011;20582;52.196;20.952;2023-01-23T04:03:34;45.45;;;18.42;;
34317;SDS011;20582;52.196;20.952;2023-01-23T04:06:00;40.83;;;17.13;;
34317;SDS011;20582;52.196;20.952;2023-01-23T04:08:26;48.00;;;19.98;;
34317;SDS011;20582;52.196;20.952;2023-01-23T04:11:03;43.70;;;17.92;;
34317;SDS011;20582;52.196;20.952;2023-01-23T04:13:30;47.22;;;18.67;;
34317;SDS011;20582;52.196;20.952;2023-01-23T04:15:56;47.38;;;17.73;;
34317;SDS011;20582;52.196;20.952;2023-01-23T04:18:22;45.80;;;19.13;;
34317;SDS011;20582;52.196;20.952;2023-01-23T04:20:48;46.30;;;18.73;;
34317;SDS011;20582;52.196;20.952;2023-01-23T04:23:14;46.58;;;18.27;;
34317;SDS011;20582;52.196;20.952;2023-01-23T04:25:40;43.80;;;18.63;;
34317;SDS011;20582;52.196;20.952;2023-01-23T04:28:06;42.50;;;18.48;;
34317;SDS011;20582;52.196;20.952;2023-01-23T04:30:32;44.53;;;16.63;;
34317;SDS011;20582;52.196;20.952;2023-01-23T04:32:58;45.72;;;17.58;;
34317;SDS011;20582;52.196;20.952;2023-01-23T04:35:24;46.80;;;17.48;;
34317;SDS011;20582;52.196;20.952;2023-01-23T04:37:50;41.30;;;18.90;;
34317;SDS011;20582;52.196;20.952;2023-01-23T04:40:16;39.85;;;16.45;;
34317;SDS011;20582;52.196;20.952;2023-01-23T04:42:42;46.15;;;19.77;;
34317;SDS011;20582;52.196;20.952;2023-01-23T04:45:08;44.72;;;18.92;;
34317;SDS011;20582;52.196;20.952;2023-01-23T04:47:35;44.35;;;18.67;;
34317;SDS011;20582;52.196;20.952;2023-01-23T04:50:01;42.80;;;18.52;;
34317;SDS011;20582;52.196;20.952;2023-01-23T04:52:27;47.80;;;20.15;;
34317;SDS011;20582;52.196;20.952;2023-01-23T04:54:53;46.90;;;19.58;;
34317;SDS011;20582;52.196;20.952;2023-01-23T04:57:19;48.00;;;18.60;;
34317;SDS011;20582;52.196;20.952;2023-01-23T04:59:45;46.47;;;19.00;;
34317;SDS011;20582;52.196;20.952;2023-01-23T05:02:11;44.05;;;20.35;;
34317;SDS011;20582;52.196;20.952;2023-01-23T05:04:37;41.72;;;18.33;;
34317;SDS011;20582;52.196;20.952;2023-01-23T05:07:03;49.50;;;20.50;;
34317;SDS011;20582;52.196;20.952;2023-01-23T05:09:29;45.30;;;18.55;;
34317;SDS011;20582;52.196;20.952;2023-01-23T05:11:55;45.80;;;19.88;;
34317;SDS011;20582;52.196;20.952;2023-01-23T05:14:21;53.33;;;19.67;;
34317;SDS011;20582;52.196;20.952;2023-01-23T05:16:49;44.22;;;19.67;;
34317;SDS011;20582;52.196;20.952;2023-01-23T05:19:15;48.35;;;20.88;;
34317;SDS011;20582;52.196;20.952;2023-01-23T05:21:41;45.70;;;18.52;;
34317;SDS011;20582;52.196;20.952;2023-01-23T05:24:07;43.92;;;19.38;;
34317;SDS011;20582;52.196;20.952;2023-01-23T05:26:34;42.20;;;19.27;;
34317;SDS011;20582;52.196;20.952;2023-01-23T05:29:00;43.60;;;19.50;;
34317;SDS011;20582;52.196;20.952;2023-01-23T05:31:26;42.05;;;18.48;;
34317;SDS011;20582;52.196;20.952;2023-01-23T05:33:52;41.55;;;18.48;;
34317;SDS011;20582;52.196;20.952;2023-01-23T05:36:18;41.22;;;19.13;;
34317;SDS011;20582;52.196;20.952;2023-01-23T05:38:44;39.90;;;18.08;;
34317;SDS011;20582;52.196;20.952;2023-01-23T05:41:10;41.47;;;17.77;;
34317;SDS011;20582;52.196;20.952;2023-01-23T05:43:36;40.80;;;17.75;;
34317;SDS011;20582;52.196;20.952;2023-01-23T05:46:02;44.63;;;18.90;;
34317;SDS011;20582;52.196;20.952;2023-01-23T05:48:28;42.10;;;19.33;;
34317;SDS011;20582;52.196;20.952;2023-01-23T05:50:54;46.78;;;18.52;;
34317;SDS011;20582;52.196;20.952;2023-01-23T05:53:20;38.83;;;18.30;;
34317;SDS011;20582;52.196;20.952;2023-01-23T05:55:46;43.15;;;18.73;;
34317;SDS011;20582;52.196;20.952;2023-01-23T05:58:12;45.50;;;18.92;;
34317;SDS011;20582;52.196;20.952;2023-01-23T06:00:38;45.45;;;19.42;;
34317;SDS011;20582;52.196;20.952;2023-01-23T06:03:04;43.78;;;18.33;;
34317;SDS011;20582;52.196;20.952;2023-01-23T06:05:30;37.88;;;17.13;;
34317;SDS011;20582;52.196;20.952;2023-01-23T06:07:56;42.60;;;18.45;;
34317;SDS011;20582;52.196;20.952;2023-01-23T06:10:22;43.33;;;18.83;;
34317;SDS011;20582;52.196;20.952;2023-01-23T06:12:49;43.15;;;19.20;;
34317;SDS011;20582;52.196;20.952;2023-01-23T06:15:15;41.47;;;17.85;;
34317;SDS011;20582;52.196;20.952;2023-01-23T06:17:41;36.78;;;17.25;;
34317;SDS011;20582;52.196;20.952;2023-01-23T06:20:07;44.35;;;19.17;;
34317;SDS011;20582;52.196;20.952;2023-01-23T06:22:33;42.53;;;19.10;;
34317;SDS011;20582;52.196;20.952;2023-01-23T06:24:59;44.67;;;18.55;;
34317;SDS011;20582;52.196;20.952;2023-01-23T06:27:25;47.70;;;19.30;;
34317;SDS011;20582;52.196;20.952;2023-01-23T06:29:51;44.97;;;19.48;;
34317;SDS011;20582;52.196;20.952;2023-01-23T06:32:17;43.17;;;19.15;;
34317;SDS011;20582;52.196;20.952;2023-01-23T06:34:43;44.92;;;18.52;;
34317;SDS011;20582;52.196;20.952;2023-01-23T06:37:09;45.75;;;19.88;;
34317;SDS011;20582;52.196;20.952;2023-01-23T06:39:35;45.53;;;19.30;;
34317;SDS011;20582;52.196;20.952;2023-01-23T06:42:00;45.80;;;20.20;;
34317;SDS011;20582;52.196;20.952;2023-01-23T06:44:27;50.08;;;21.55;;
34317;SDS011;20582;52.196;20.952;2023-01-23T06:46:53;45.30;;;18.55;;
34317;SDS011;20582;52.196;20.952;2023-01-23T06:49:18;43.60;;;19.45;;
34317;SDS011;20582;52.196;20.952;2023-01-23T06:51:44;43.00;;;19.92;;
34317;SDS011;20582;52.196;20.952;2023-01-23T06:54:10;40.20;;;17.42;;
34317;SDS011;20582;52.196;20.952;2023-01-23T06:56:36;44.05;;;18.50;;
34317;SDS011;20582;52.196;20.952;2023-01-23T06:59:02;46.90;;;19.23;;
34317;SDS011;20582;52.196;20.952;2023-01-23T07:01:28;44.40;;;20.33;;
34317;SDS011;20582;52.196;20.952;2023-01-23T07:03:54;46.05;;;20.67;;
34317;SDS011;20582;52.196;20.952;2023-01-23T07:06:20;45.40;;;19.38;;
34317;SDS011;20582;52.196;20.952;2023-01-23T07:08:47;39.95;;;19.33;;
34317;SDS011;20582;52.196;20.952;2023-01-23T07:11:14;46.00;;;18.70;;
34317;SDS011;20582;52.196;20.952;2023-01-23T07:13:40;42.72;;;18.60;;
34317;SDS011;20582;52.196;20.952;2023-01-23T07:16:06;46.17;;;19.55;;
34317;SDS011;20582;52.196;20.952;2023-01-23T07:18:32;45.20;;;21.58;;
34317;SDS011;20582;52.196;20.952;2023-01-23T07:20:59;43.30;;;19.27;;
34317;SDS011;20582;52.196;20.952;2023-01-23T07:23:28;49.70;;;19.80;;
34317;SDS011;20582;52.196;20.952;2023-01-23T07:25:58;45.20;;;20.15;;
34317;SDS011;20582;52.196;20.952;2023-01-23T07:28:24;43.70;;;20.45;;
34317;SDS011;20582;52.196;20.952;2023-01-23T07:30:50;43.88;;;19.75;;
34317;SDS011;20582;52.196;20.952;2023-01-23T07:33:16;45.47;;;21.00;;
34317;SDS011;20582;52.196;20.952;2023-01-23T07:35:42;39.08;;;18.15;;
34317;SDS011;20582;52.196;20.952;2023-01-23T07:38:08;45.40;;;21.00;;
34317;SDS011;20582;52.196;20.952;2023-01-23T07:40:34;43.33;;;19.35;;
34317;SDS011;20582;52.196;20.952;2023-01-23T07:43:02;47.58;;;21.13;;
34317;SDS011;20582;52.196;20.952;2023-01-23T07:45:28;43.50;;;20.35;;
34317;SDS011;20582;52.196;20.952;2023-01-23T07:47:54;44.15;;;21.45;;
34317;SDS011;20582;52.196;20.952;2023-01-23T07:50:20;41.97;;;19.13;;
34317;SDS011;20582;52.196;20.952;2023-01-23T07:52:46;43.97;;;20.08;;
34317;SDS011;20582;52.196;20.952;2023-01-23T07:55:12;44.10;;;20.10;;
34317;SDS011;20582;52.196;20.952;2023-01-23T07:57:38;45.67;;;21.15;;
34317;SDS011;20582;52.196;20.952;2023-01-23T08:00:04;41.60;;;20.67;;
34317;SDS011;20582;52.196;20.952;2023-01-23T08:02:31;47.80;;;21.75;;
34317;SDS011;20582;52.196;20.952;2023-01-23T08:04:57;44.33;;;20.73;;
34317;SDS011;20582;52.196;20.952;2023-01-23T08:07:23;46.03;;;21.23;;
34317;SDS011;20582;52.196;20.952;2023-01-23T08:09:49;43.35;;;20.00;;
34317;SDS011;20582;52.196;20.952;2023-01-23T08:12:15;47.05;;;22.05;;
34317;SDS011;20582;52.196;20.952;2023-01-23T08:14:40;47.28;;;21.15;;
34317;SDS011;20582;52.196;20.952;2023-01-23T08:17:06;41.08;;;19.27;;
34317;SDS011;20582;52.196;20.952;2023-01-23T08:19:32;44.47;;;20.35;;
34317;SDS011;20582;52.196;20.952;2023-01-23T08:21:58;43.63;;;19.80;;
34317;SDS011;20582;52.196;20.952;2023-01-23T08:24:24;44.63;;;20.95;;
34317;SDS011;20582;52.196;20.952;2023-01-23T08:26:50;44.08;;;19.92;;
34317;SDS011;20582;52.196;20.952;2023-01-23T08:29:16;42.88;;;20.45;;
34317;SDS011;20582;52.196;20.952;2023-01-23T08:31:42;37.20;;;18.08;;
34317;SDS011;20582;52.196;20.952;2023-01-23T08:34:08;43.58;;;20.20;;
34317;SDS011;20582;52.196;20.952;2023-01-23T08:36:34;47.08;;;20.25;;
34317;SDS011;20582;52.196;20.952;2023-01-23T08:39:00;44.10;;;20.80;;
34317;SDS011;20582;52.196;20.952;2023-01-23T08:41:26;47.90;;;21.92;;
34317;SDS011;20582;52.196;20.952;2023-01-23T08:43:52;43.80;;;20.48;;
34317;SDS011;20582;52.196;20.952;2023-01-23T08:46:18;42.75;;;20.00;;
34317;SDS011;20582;52.196;20.952;2023-01-23T08:48:44;45.13;;;20.63;;
34317;SDS011;20582;52.196;20.952;2023-01-23T08:51:11;44.75;;;22.15;;
34317;SDS011;20582;52.196;20.952;2023-01-23T08:53:38;44.33;;;21.92;;
34317;SDS011;20582;52.196;20.952;2023-01-23T08:56:05;43.15;;;19.23;;
34317;SDS011;20582;52.196;20.952;2023-01-23T08:58:31;43.67;;;20.90;;
34317;SDS011;20582;52.196;20.952;2023-01-23T09:00:57;42.78;;;21.50;;
34317;SDS011;20582;52.196;20.952;2023-01-23T09:03:23;47.42;;;20.38;;
34317;SDS011;20582;52.196;20.952;2023-01-23T09:05:49;43.00;;;21.38;;
34317;SDS011;20582;52.196;20.952;2023-01-23T09:08:15;43.78;;;20.08;;
34317;SDS011;20582;52.196;20.952;2023-01-23T09:10:41;45.58;;;21.17;;
34317;SDS011;20582;52.196;20.952;2023-01-23T09:13:08;43.67;;;21.25;;
34317;SDS011;20582;52.196;20.952;2023-01-23T09:15:36;43.28;;;21.10;;
34317;SDS011;20582;52.196;20.952;2023-01-23T09:18:02;43.13;;;21.23;;
34317;SDS011;20582;52.196;20.952;2023-01-23T09:20:29;46.22;;;21.30;;
34317;SDS011;20582;52.196;20.952;2023-01-23T09:22:56;45.65;;;21.85;;
34317;SDS011;20582;52.196;20.952;2023-01-23T09:25:22;45.50;;;20.00;;
34317;SDS011;20582;52.196;20.952;2023-01-23T09:27:47;43.28;;;20.70;;
34317;SDS011;20582;52.196;20.952;2023-01-23T09:30:13;38.95;;;18.85;;
34317;SDS011;20582;52.196;20.952;2023-01-23T09:32:40;40.72;;;21.48;;
34317;SDS011;20582;52.196;20.952;2023-01-23T09:35:06;39.47;;;20.10;;
34317;SDS011;20582;52.196;20.952;2023-01-23T09:37:32;45.45;;;21.10;;
34317;SDS011;20582;52.196;20.952;2023-01-23T09:40:18;41.92;;;20.17;;
34317;SDS011;20582;52.196;20.952;2023-01-23T09:42:46;40.90;;;19.48;;
34317;SDS011;20582;52.196;20.952;2023-01-23T09:45:15;47.00;;;20.33;;
34317;SDS011;20582;52.196;20.952;2023-01-23T09:47:47;44.75;;;20.80;;
34317;SDS011;20582;52.196;20.952;2023-01-23T09:50:17;41.90;;;19.42;;
34317;SDS011;20582;52.196;20.952;2023-01-23T09:52:45;42.70;;;20.92;;
34317;SDS011;20582;52.196;20.952;2023-01-23T09:55:17;44.97;;;21.05;;
34317;SDS011;20582;52.196;20.952;2023-01-23T09:57:54;43.60;;;21.90;;
34317;SDS011;20582;52.196;20.952;2023-01-23T10:00:25;44.70;;;20.88;;
34317;SDS011;20582;52.196;20.952;2023-01-23T10:02:54;44.50;;;20.45;;
34317;SDS011;20582;52.196;20.952;2023-01-23T10:05:24;46.10;;;19.88;;
34317;SDS011;20582;52.196;20.952;2023-01-23T10:07:56;48.22;;;20.17;;
34317;SDS011;20582;52.196;20.952;2023-01-23T10:13:05;45.28;;;21.67;;
34317;SDS011;20582;52.196;20.952;2023-01-23T10:18:05;50.85;;;22.20;;
34317;SDS011;20582;52.196;20.952;2023-01-23T10:20:42;46.83;;;21.10;;
34317;SDS011;20582;52.196;20.952;2023-01-23T10:23:12;49.78;;;23.95;;
34317;SDS011;20582;52.196;20.952;2023-01-23T10:25:44;50.10;;;23.45;;
34317;SDS011;20582;52.196;20.952;2023-01-23T10:28:28;50.67;;;23.45;;
34317;SDS011;20582;52.196;20.952;2023-01-23T10:31:00;53.95;;;23.50;;
34317;SDS011;20582;52.196;20.952;2023-01-23T10:33:50;50.53;;;23.10;;
34317;SDS011;20582;52.196;20.952;2023-01-23T10:36:31;54.83;;;23.38;;
34317;SDS011;20582;52.196;20.952;2023-01-23T10:39:09;51.78;;;24.17;;
34317;SDS011;20582;52.196;20.952;2023-01-23T10:41:37;54.22;;;24.58;;
34317;SDS011;20582;52.196;20.952;2023-01-23T10:44:16;50.60;;;22.77;;
34317;SDS011;20582;52.196;20.952;2023-01-23T10:46:44;46.47;;;21.48;;
34317;SDS011;20582;52.196;20.952;2023-01-23T10:49:11;48.22;;;22.20;;
34317;SDS011;20582;52.196;20.952;2023-01-23T10:51:51;51.08;;;23.55;;
34317;SDS011;20582;52.196;20.952;2023-01-23T10:54:18;46.88;;;21.75;;
34317;SDS011;20582;52.196;20.952;2023-01-23T10:56:48;48.70;;;21.83;;
34317;SDS011;20582;52.196;20.952;2023-01-23T10:59:20;44.58;;;22.67;;
34317;SDS011;20582;52.196;20.952;2023-01-23T11:02:00;46.97;;;21.70;;
34317;SDS011;20582;52.196;20.952;2023-01-23T11:04:28;41.95;;;21.00;;
34317;SDS011;20582;52.196;20.952;2023-01-23T11:07:02;43.33;;;20.02;;
34317;SDS011;20582;52.196;20.952;2023-01-23T11:09:28;48.00;;;21.98;;
34317;SDS011;20582;52.196;20.952;2023-01-23T11:11:58;48.15;;;21.40;;
34317;SDS011;20582;52.196;20.952;2023-01-23T11:14:24;44.13;;;20.65;;
34317;SDS011;20582;52.196;20.952;2023-01-23T11:16:58;44.58;;;21.55;;
34317;SDS011;20582;52.196;20.952;2023-01-23T11:19:25;42.92;;;20.67;;
34317;SDS011;20582;52.196;20.952;2023-01-23T11:21:52;42.97;;;21.35;;
34317;SDS011;20582;52.196;20.952;2023-01-23T11:24:19;41.85;;;19.55;;
34317;SDS011;20582;52.196;20.952;2023-01-23T11:26:46;42.05;;;20.42;;
34317;SDS011;20582;52.196;20.952;2023-01-23T11:29:23;44.08;;;21.20;;
34317;SDS011;20582;52.196;20.952;2023-01-23T11:31:50;46.15;;;22.45;;
34317;SDS011;20582;52.196;20.952;2023-01-23T11:34:18;43.22;;;21.90;;
34317;SDS011;20582;52.196;20.952;2023-01-23T11:39:38;45.83;;;21.92;;
34317;SDS011;20582;52.196;20.952;2023-01-23T11:42:08;43.60;;;22.23;;
34317;SDS011;20582;52.196;20.952;2023-01-23T11:44:34;49.17;;;20.52;;
34317;SDS011;20582;52.196;20.952;2023-01-23T11:47:10;49.33;;;23.50;;
34317;SDS011;20582;52.196;20.952;2023-01-23T12:00:28;43.28;;;21.83;;
34317;SDS011;20582;52.196;20.952;2023-01-23T12:15:44;40.88;;;19.67;;
34317;SDS011;20582;52.196;20.952;2023-01-23T12:26:02;47.45;;;21.88;;
34317;SDS011;20582;52.196;20.952;2023-01-23T12:28:39;46.20;;;21.50;;
34317;SDS011;20582;52.196;20.952;2023-01-23T12:31:32;44.90;;;22.83;;
34317;SDS011;20582;52.196;20.952;2023-01-23T12:34:02;48.85;;;23.83;;
34317;SDS011;20582;52.196;20.952;2023-01-23T12:36:39;55.53;;;24.85;;
34317;SDS011;20582;52.196;20.952;2023-01-23T12:41:54;50.03;;;22.98;;
34317;SDS011;20582;52.196;20.952;2023-01-23T12:44:52;48.03;;;21.45;;
34317;SDS011;20582;52.196;20.952;2023-01-23T12:47:22;42.00;;;20.92;;
34317;SDS011;20582;52.196;20.952;2023-01-23T12:49:53;42.22;;;21.02;;
34317;SDS011;20582;52.196;20.952;2023-01-23T12:55:02;39.35;;;20.40;;
34317;SDS011;20582;52.196;20.952;2023-01-23T12:57:29;43.47;;;21.05;;
34317;SDS011;20582;52.196;20.952;2023-01-23T13:02:37;41.80;;;21.05;;
34317;SDS011;20582;52.196;20.952;2023-01-23T13:12:28;43.35;;;21.08;;
34317;SDS011;20582;52.196;20.952;2023-01-23T13:17:49;44.72;;;21.77;;
34317;SDS011;20582;52.196;20.952;2023-01-23T13:25:48;47.05;;;22.30;;
34317;SDS011;20582;52.196;20.952;2023-01-23T13:28:32;48.83;;;23.55;;
34317;SDS011;20582;52.196;20.952;2023-01-23T13:31:00;50.55;;;23.05;;
34317;SDS011;20582;52.196;20.952;2023-01-23T13:35:55;49.78;;;23.08;;
34317;SDS011;20582;52.196;20.952;2023-01-23T13:51:41;46.47;;;22.73;;
34317;SDS011;20582;52.196;20.952;2023-01-23T13:54:14;47.65;;;23.55;;
34317;SDS011;20582;52.196;20.952;2023-01-23T13:57:01;47.22;;;22.52;;
34317;SDS011;20582;52.196;20.952;2023-01-23T13:59:31;47.15;;;23.58;;
34317;SDS011;20582;52.196;20.952;2023-01-23T14:02:00;47.30;;;23.33;;
34317;SDS011;20582;52.196;20.952;2023-01-23T14:04:55;49.95;;;24.52;;
34317;SDS011;20582;52.196;20.952;2023-01-23T14:07:37;45.35;;;22.92;;
34317;SDS011;20582;52.196;20.952;2023-01-23T14:12:46;47.78;;;22.50;;
34317;SDS011;20582;52.196;20.952;2023-01-23T14:15:16;46.20;;;21.92;;
34317;SDS011;20582;52.196;20.952;2023-01-23T14:18:02;41.00;;;20.80;;
34317;SDS011;20582;52.196;20.952;2023-01-23T14:20:31;40.58;;;21.00;;
34317;SDS011;20582;52.196;20.952;2023-01-23T14:23:03;40.47;;;20.92;;
34317;SDS011;20582;52.196;20.952;2023-01-23T14:25:30;39.33;;;20.02;;
34317;SDS011;20582;52.196;20.952;2023-01-23T14:28:03;45.28;;;20.50;;
34317;SDS011;20582;52.196;20.952;2023-01-23T14:30:30;40.35;;;20.48;;
34317;SDS011;20582;52.196;20.952;2023-01-23T14:32:56;39.65;;;20.73;;
34317;SDS011;20582;52.196;20.952;2023-01-23T14:35:26;43.88;;;20.52;;
34317;SDS011;20582;52.196;20.952;2023-01-23T14:37:53;43.95;;;22.52;;
34317;SDS011;20582;52.196;20.952;2023-01-23T14:40:21;45.85;;;21.42;;
34317;SDS011;20582;52.196;20.952;2023-01-23T14:43:04;41.83;;;20.95;;
34317;SDS011;20582;52.196;20.952;2023-01-23T14:45:31;41.78;;;21.15;;
34317;SDS011;20582;52.196;20.952;2023-01-23T14:47:57;44.67;;;24.20;;
34317;SDS011;20582;52.196;20.952;2023-01-23T14:50:24;43.22;;;22.60;;
34317;SDS011;20582;52.196;20.952;2023-01-23T14:53:10;47.22;;;23.50;;
34317;SDS011;20582;52.196;20.952;2023-01-23T14:55:38;48.78;;;24.55;;
34317;SDS011;20582;52.196;20.952;2023-01-23T14:58:04;44.65;;;22.80;;
34317;SDS011;20582;52.196;20.952;2023-01-23T15:00:31;46.10;;;21.60;;
34317;SDS011;20582;52.196;20.952;2023-01-23T15:02:59;47.15;;;22.48;;
34317;SDS011;20582;52.196;20.952;2023-01-23T15:05:26;47.88;;;24.58;;
34317;SDS011;20582;52.196;20.952;2023-01-23T15:08:00;50.97;;;24.98;;
34317;SDS011;20582;52.196;20.952;2023-01-23T15:10:33;53.33;;;24.63;;
34317;SDS011;20582;52.196;20.952;2023-01-23T15:13:01;49.67;;;25.70;;
34317;SDS011;20582;52.196;20.952;2023-01-23T15:15:28;51.33;;;25.40;;
34317;SDS011;20582;52.196;20.952;2023-01-23T15:17:55;47.38;;;24.45;;
34317;SDS011;20582;52.196;20.952;2023-01-23T15:25:47;48.25;;;23.70;;
34317;SDS011;20582;52.196;20.952;2023-01-23T15:28:28;46.92;;;23.55;;
34317;SDS011;20582;52.196;20.952;2023-01-23T15:33:27;50.00;;;22.42;;
34317;SDS011;20582;52.196;20.952;2023-01-23T15:36:04;47.13;;;23.55;;
34317;SDS011;20582;52.196;20.952;2023-01-23T15:38:31;48.72;;;24.10;;
34317;SDS011;20582;52.196;20.952;2023-01-23T15:40:57;45.40;;;23.45;;
34317;SDS011;20582;52.196;20.952;2023-01-23T15:43:23;49.75;;;24.08;;
34317;SDS011;20582;52.196;20.952;2023-01-23T15:45:50;47.08;;;23.77;;
34317;SDS011;20582;52.196;20.952;2023-01-23T15:48:16;44.30;;;23.63;;
34317;SDS011;20582;52.196;20.952;2023-01-23T15:50:42;52.25;;;23.98;;
34317;SDS011;20582;52.196;20.952;2023-01-23T15:53:11;46.17;;;24.80;;
34317;SDS011;20582;52.196;20.952;2023-01-23T15:55:38;44.10;;;22.27;;